createdAt,value
2018-11-07T00:00:18.992Z,67.67
2018-11-07T00:02:48.329Z,83.07
2018-11-07T00:05:18.815Z,68.20
2018-11-07T00:07:48.183Z,69.30
2018-11-07T00:10:17.442Z,78.13
2018-11-07T00:12:46.751Z,70.47
2018-11-07T00:15:16.727Z,66.33
2018-11-07T00:17:46.024Z,69.13
2018-11-07T00:20:15.298Z,70.93
2018-11-07T00:22:44.666Z,63.03
2018-11-07T00:25:14.006Z,63.20
2018-11-07T00:27:43.308Z,61.80
2018-11-07T00:30:12.813Z,64.33
2018-11-07T00:32:42.208Z,68.67
2018-11-07T00:35:12.245Z,71.17
2018-11-07T00:37:42.631Z,65.13
2018-11-07T00:40:12.336Z,73.70
2018-11-07T00:42:41.695Z,72.73
2018-11-07T00:45:12.744Z,66.53
2018-11-07T00:47:42.271Z,66.53
2018-11-07T00:50:17.010Z,79.93
2018-11-07T00:52:47.876Z,73.83
2018-11-07T00:55:17.866Z,77.53
2018-11-07T00:57:47.159Z,79.40
2018-11-07T01:00:18.620Z,63.57
2018-11-07T01:02:48.926Z,70.90
2018-11-07T01:05:18.301Z,75.57
2018-11-07T01:07:48.208Z,76.47
2018-11-07T01:10:20.480Z,73.70
2018-11-07T01:12:49.814Z,73.60
2018-11-07T01:15:19.185Z,68.77
2018-11-07T01:17:48.517Z,74.87
2018-11-07T01:20:17.889Z,81.70
2018-11-07T01:22:47.226Z,72.93
2018-11-07T01:25:16.698Z,81.47
2018-11-07T01:27:46.022Z,75.03
2018-11-07T01:30:15.326Z,77.60
2018-11-07T01:32:44.843Z,74.90
2018-11-07T01:35:14.111Z,78.27
2018-11-07T01:37:43.656Z,70.93
2018-11-07T01:40:14.314Z,70.33
2018-11-07T01:42:44.486Z,80.53
2018-11-07T01:45:14.046Z,69.17
2018-11-07T01:47:43.521Z,66.57
2018-11-07T01:50:13.855Z,65.67
2018-11-07T01:52:43.399Z,72.43
2018-11-07T01:55:13.913Z,69.83
2018-11-07T01:57:43.220Z,74.60
2018-11-07T02:00:13.108Z,75.20
2018-11-07T02:02:43.685Z,74.37
2018-11-07T02:05:13.477Z,72.50
2018-11-07T02:07:43.327Z,81.30
2018-11-07T02:10:12.971Z,83.60
2018-11-07T02:12:42.520Z,83.10
2018-11-07T02:15:12.185Z,75.80
2018-11-07T02:17:41.558Z,82.30
2018-11-07T02:20:11.951Z,62.17
2018-11-07T02:22:41.583Z,67.03
2018-11-07T02:25:11.103Z,67.47
2018-11-07T02:27:40.879Z,57.83
2018-11-07T02:30:14.513Z,68.13
2018-11-07T02:32:44.189Z,67.13
2018-11-07T02:35:13.518Z,59.87
2018-11-07T02:37:43.012Z,63.60
2018-11-07T02:40:12.310Z,68.00
2018-11-07T02:42:41.616Z,67.03
2018-11-07T02:45:10.923Z,72.77
2018-11-07T02:47:40.298Z,69.60
2018-11-07T02:50:10.391Z,71.77
2018-11-07T02:52:41.666Z,63.13
2018-11-07T02:55:10.954Z,89.63
2018-11-07T02:57:40.238Z,70.13
2018-11-07T03:00:12.813Z,69.03
2018-11-07T03:02:42.184Z,71.60
2018-11-07T03:05:11.578Z,66.03
2018-11-07T03:07:41.294Z,70.93
2018-11-07T03:10:12.861Z,90.90
2018-11-07T03:12:42.792Z,89.40
2018-11-07T03:15:12.389Z,82.00
2018-11-07T03:17:41.848Z,71.93
2018-11-07T03:20:12.724Z,71.70
2018-11-07T03:22:42.236Z,78.37
2018-11-07T03:25:11.530Z,84.73
2018-11-07T03:27:40.891Z,84.37
2018-11-07T03:30:10.499Z,79.97
2018-11-07T03:32:39.921Z,88.20
2018-11-07T03:35:14.548Z,80.30
2018-11-07T03:37:43.842Z,84.47
2018-11-07T03:40:13.242Z,86.50
2018-11-07T03:42:42.574Z,96.60
2018-11-07T03:45:11.862Z,100.57
2018-11-07T03:47:41.228Z,95.73
2018-11-07T03:50:10.569Z,83.93
2018-11-07T03:52:40.034Z,115.50
2018-11-07T03:55:09.400Z,105.37
2018-11-07T03:57:38.873Z,99.00
2018-11-07T04:00:09.678Z,103.20
2018-11-07T04:02:39.668Z,92.00
2018-11-07T04:05:10.531Z,87.07
2018-11-07T04:07:40.453Z,92.37
2018-11-07T04:10:09.913Z,87.40
2018-11-07T04:12:39.179Z,147.00
2018-11-07T04:15:09.408Z,99.77
2018-11-07T04:17:38.744Z,121.93
2018-11-07T04:20:08.922Z,117.07
2018-11-07T04:22:38.356Z,109.57
2018-11-07T04:25:08.254Z,223.80
2018-11-07T04:27:37.522Z,158.43
2018-11-07T04:30:09.772Z,168.77
2018-11-07T04:32:39.007Z,144.20
2018-11-07T04:35:09.739Z,242.97
2018-11-07T04:37:40.130Z,258.97
2018-11-07T04:40:10.900Z,407.37
2018-11-07T04:42:40.370Z,392.43
2018-11-07T04:45:09.709Z,360.93
2018-11-07T04:47:38.989Z,370.47
2018-11-07T04:50:10.135Z,292.83
2018-11-07T04:52:39.770Z,301.80
2018-11-07T04:55:09.063Z,345.57
2018-11-07T04:57:38.534Z,310.93
2018-11-07T05:00:10.465Z,204.07
2018-11-07T05:02:39.813Z,261.00
2018-11-07T05:05:09.192Z,227.60
2018-11-07T05:07:38.489Z,293.93
2018-11-07T05:10:09.494Z,223.00
2018-11-07T05:12:39.006Z,215.63
2018-11-07T05:15:08.906Z,259.17
2018-11-07T05:17:38.506Z,251.87
2018-11-07T05:20:09.639Z,250.57
2018-11-07T05:22:39.034Z,219.00
2018-11-07T05:25:09.331Z,156.37
2018-11-07T05:27:38.631Z,174.67
2018-11-07T05:30:09.273Z,185.93
2018-11-07T05:32:38.668Z,211.73
2018-11-07T05:35:08.246Z,170.80
2018-11-07T05:37:37.595Z,205.17
2018-11-07T05:40:07.995Z,181.67
2018-11-07T05:42:37.302Z,127.13
2018-11-07T05:45:06.826Z,274.57
2018-11-07T05:47:36.198Z,234.93
2018-11-07T05:50:06.630Z,149.77
2018-11-07T05:52:36.080Z,118.17
2018-11-07T05:55:06.114Z,115.73
2018-11-07T05:57:35.418Z,108.37
2018-11-07T06:00:05.374Z,143.00
2018-11-07T06:02:34.949Z,112.57
2018-11-07T06:05:04.256Z,133.60
2018-11-07T06:07:33.482Z,127.97
2018-11-07T06:10:02.778Z,106.07
2018-11-07T06:12:32.103Z,158.47
2018-11-07T06:15:01.398Z,106.90
2018-11-07T06:17:30.683Z,170.87
2018-11-07T06:19:59.995Z,145.07
2018-11-07T06:22:29.256Z,127.17
2018-11-07T06:24:58.839Z,208.70
2018-11-07T06:27:28.084Z,190.63
2018-11-07T06:29:57.436Z,121.13
2018-11-07T06:32:26.737Z,149.30
2018-11-07T06:34:56.014Z,108.53
2018-11-07T06:37:25.351Z,146.60
2018-11-07T06:39:54.703Z,100.63
2018-11-07T06:42:24.006Z,150.03
2018-11-07T06:44:53.393Z,183.77
2018-11-07T06:47:22.936Z,176.50
2018-11-07T06:49:52.282Z,156.27
2018-11-07T06:52:21.593Z,210.63
2018-11-07T06:54:50.914Z,83.13
2018-11-07T06:57:20.242Z,157.87
2018-11-07T06:59:49.580Z,116.23
2018-11-07T07:02:18.923Z,127.77
2018-11-07T07:04:48.260Z,120.50
2018-11-07T07:07:17.544Z,85.93
2018-11-07T07:09:47.294Z,64.40
2018-11-07T07:12:16.691Z,90.33
2018-11-07T07:14:45.992Z,91.20
2018-11-07T07:17:15.360Z,104.50
2018-11-07T07:19:44.733Z,139.30
2018-11-07T07:22:14.029Z,85.83
2018-11-07T07:24:43.415Z,77.67
2018-11-07T07:27:12.747Z,68.23
2018-11-07T07:29:42.089Z,65.23
2018-11-07T07:32:11.499Z,62.90
2018-11-07T07:34:40.819Z,56.20
2018-11-07T07:37:10.130Z,66.00
2018-11-07T07:39:39.469Z,51.20
2018-11-07T07:42:08.739Z,51.40
2018-11-07T07:44:38.026Z,50.77
2018-11-07T07:47:07.439Z,46.60
2018-11-07T07:49:36.732Z,50.93
2018-11-07T07:52:06.286Z,42.97
2018-11-07T07:54:35.791Z,41.47
2018-11-07T07:57:05.172Z,41.73
2018-11-07T07:59:34.482Z,42.87
2018-11-07T08:02:03.922Z,37.13
2018-11-07T08:04:33.235Z,34.20
2018-11-07T08:07:02.655Z,46.87
2018-11-07T08:09:31.971Z,35.57
2018-11-07T08:12:01.293Z,31.10
2018-11-07T08:14:30.643Z,27.90
2018-11-07T08:17:00.171Z,28.80
2018-11-07T08:19:29.464Z,31.90
2018-11-07T08:21:59.018Z,30.90
2018-11-07T08:24:28.379Z,28.23
2018-11-07T08:26:57.706Z,32.93
2018-11-07T08:29:27.000Z,35.10
2018-11-07T08:31:56.312Z,27.77
2018-11-07T08:34:25.602Z,26.57
2018-11-07T08:36:55.013Z,29.63
2018-11-07T08:39:24.552Z,26.20
2018-11-07T08:41:53.947Z,32.33
2018-11-07T08:44:23.280Z,26.53
2018-11-07T08:46:52.629Z,22.37
2018-11-07T08:49:21.955Z,29.67
2018-11-07T08:51:51.293Z,29.60
2018-11-07T08:54:20.656Z,24.97
2018-11-07T08:56:49.988Z,24.20
2018-11-07T08:59:19.292Z,27.40
2018-11-07T09:01:48.693Z,23.37
2018-11-07T09:04:17.998Z,35.67
2018-11-07T09:06:47.321Z,33.80
2018-11-07T09:09:16.660Z,25.10
2018-11-07T09:11:46.004Z,22.07
2018-11-07T09:14:15.350Z,29.10
2018-11-07T09:16:44.708Z,22.57
2018-11-07T09:19:14.039Z,24.33
2018-11-07T09:21:43.434Z,28.50
2018-11-07T09:24:12.975Z,26.30
2018-11-07T09:26:43.974Z,30.83
2018-11-07T09:29:13.344Z,31.73
2018-11-07T09:31:42.763Z,26.80
2018-11-07T09:34:12.115Z,25.27
2018-11-07T09:36:41.416Z,27.83
2018-11-07T09:39:11.603Z,23.03
2018-11-07T09:41:40.958Z,22.30
2018-11-07T09:44:10.275Z,25.83
2018-11-07T09:46:39.869Z,19.27
2018-11-07T09:49:09.214Z,21.33
2018-11-07T09:51:38.543Z,18.17
2018-11-07T09:54:08.148Z,29.40
2018-11-07T09:56:37.522Z,17.90
2018-11-07T09:59:06.871Z,21.60
2018-11-07T10:01:36.291Z,24.77
2018-11-07T10:04:06.784Z,25.93
2018-11-07T10:06:36.140Z,22.57
2018-11-07T10:09:07.948Z,25.03
2018-11-07T10:11:37.256Z,26.07
2018-11-07T10:14:06.791Z,22.50
2018-11-07T10:16:36.192Z,21.17
2018-11-07T10:19:05.716Z,19.03
2018-11-07T10:21:35.071Z,19.00
2018-11-07T10:24:04.467Z,20.77
2018-11-07T10:26:33.841Z,16.83
2018-11-07T10:29:03.445Z,19.57
2018-11-07T10:31:32.973Z,25.63
2018-11-07T10:34:02.329Z,20.80
2018-11-07T10:36:31.743Z,23.90
2018-11-07T10:39:01.210Z,21.30
2018-11-07T10:41:30.590Z,22.20
2018-11-07T10:43:59.975Z,19.77
2018-11-07T10:46:29.222Z,22.17
2018-11-07T10:48:58.602Z,15.77
2018-11-07T10:51:27.901Z,17.20
2018-11-07T10:53:57.328Z,21.77
2018-11-07T10:56:26.638Z,22.70
2018-11-07T10:58:56.022Z,23.70
2018-11-07T11:01:30.644Z,17.30
2018-11-07T11:03:59.976Z,18.13
2018-11-07T11:06:29.258Z,14.73
2018-11-07T11:08:58.927Z,25.23
2018-11-07T11:11:28.360Z,20.60
2018-11-07T11:13:57.667Z,16.20
2018-11-07T11:16:27.458Z,14.83
2018-11-07T11:18:56.812Z,13.93
2018-11-07T11:21:26.195Z,15.50
2018-11-07T11:23:55.621Z,13.73
2018-11-07T11:26:24.985Z,16.90
2018-11-07T11:28:54.266Z,12.63
2018-11-07T11:31:27.494Z,12.83
2018-11-07T11:33:56.985Z,11.30
2018-11-07T11:36:26.233Z,11.97
2018-11-07T11:38:55.520Z,12.73
2018-11-07T11:41:24.844Z,10.73
2018-11-07T11:43:54.172Z,13.10
2018-11-07T11:46:23.498Z,11.40
2018-11-07T11:48:52.898Z,10.73
2018-11-07T11:51:22.553Z,11.33
2018-11-07T11:53:51.835Z,8.97
2018-11-07T11:56:21.153Z,15.40
2018-11-07T11:58:50.529Z,9.83
2018-11-07T12:01:19.819Z,9.93
2018-11-07T12:03:49.087Z,9.20
2018-11-07T12:06:19.430Z,9.13
2018-11-07T12:08:48.816Z,19.63
2018-11-07T12:11:18.160Z,9.67
2018-11-07T12:13:47.554Z,9.27
2018-11-07T12:16:16.876Z,7.37
2018-11-07T12:18:46.216Z,8.33
2018-11-07T12:21:15.615Z,9.03
2018-11-07T12:23:44.905Z,11.13
2018-11-07T12:26:14.210Z,7.53
2018-11-07T12:28:43.579Z,7.67
2018-11-07T12:31:12.887Z,8.67
2018-11-07T12:33:42.191Z,8.07
2018-11-07T12:36:11.712Z,7.37
2018-11-07T12:38:41.067Z,7.17
2018-11-07T12:41:10.420Z,9.33
2018-11-07T12:43:39.775Z,6.23
2018-11-07T12:46:09.164Z,6.50
2018-11-07T12:48:38.538Z,7.37
2018-11-07T12:51:07.901Z,7.33
2018-11-07T12:53:37.268Z,5.80
2018-11-07T12:56:07.051Z,6.83
2018-11-07T12:58:36.672Z,6.30
2018-11-07T13:01:06.241Z,6.93
2018-11-07T13:03:35.563Z,7.00
2018-11-07T13:06:04.933Z,7.53
2018-11-07T13:08:34.361Z,6.80
2018-11-07T13:11:03.659Z,6.90
2018-11-07T13:13:33.029Z,17.50
2018-11-07T13:16:02.382Z,9.47
2018-11-07T13:18:31.772Z,11.13
2018-11-07T13:21:01.272Z,7.80
2018-11-07T13:23:30.665Z,6.80
2018-11-07T13:25:59.975Z,8.77
2018-11-07T13:28:29.391Z,6.70
2018-11-07T13:30:58.711Z,5.90
2018-11-07T13:33:27.995Z,5.83
2018-11-07T13:35:57.411Z,6.60
2018-11-07T13:38:27.006Z,6.20
2018-11-07T13:40:56.118Z,7.03
2018-11-07T13:43:25.621Z,6.33
2018-11-07T13:45:55.083Z,11.53
2018-11-07T13:48:24.374Z,13.00
2018-11-07T13:50:53.735Z,7.27
2018-11-07T13:53:23.134Z,17.07
2018-11-07T13:55:52.510Z,11.40
2018-11-07T13:58:21.911Z,6.80
2018-11-07T14:00:51.715Z,6.93
2018-11-07T14:03:21.056Z,8.10
2018-11-07T14:05:51.029Z,6.10
2018-11-07T14:08:20.165Z,9.93
2018-11-07T14:10:49.568Z,12.53
2018-11-07T14:13:18.994Z,6.90
2018-11-07T14:15:50.424Z,9.20
2018-11-07T14:18:19.842Z,6.50
2018-11-07T14:20:49.192Z,15.57
2018-11-07T14:23:18.517Z,8.70
2018-11-07T14:25:48.131Z,7.33
2018-11-07T14:28:17.675Z,6.60
2018-11-07T14:30:47.038Z,7.03
2018-11-07T14:33:16.393Z,7.17
2018-11-07T14:35:48.340Z,11.07
2018-11-07T14:38:17.761Z,7.37
2018-11-07T14:40:49.072Z,7.73
2018-11-07T14:43:18.824Z,9.93
2018-11-07T14:45:48.119Z,14.20
2018-11-07T14:48:17.506Z,8.57
2018-11-07T14:50:46.917Z,16.43
2018-11-07T14:53:16.365Z,9.33
2018-11-07T14:55:45.709Z,9.03
2018-11-07T14:58:15.046Z,9.13
2018-11-07T15:00:44.499Z,8.83
2018-11-07T15:03:14.948Z,19.97
2018-11-07T15:05:45.493Z,17.40
2018-11-07T15:08:14.863Z,26.27
2018-11-07T15:10:44.189Z,17.70
2018-11-07T15:13:13.607Z,16.20
2018-11-07T15:15:43.151Z,11.07
2018-11-07T15:18:13.390Z,12.03
2018-11-07T15:20:42.792Z,16.77
2018-11-07T15:23:12.187Z,17.03
2018-11-07T15:25:41.594Z,27.13
2018-11-07T15:28:11.020Z,27.40
2018-11-07T15:30:40.482Z,12.80
2018-11-07T15:33:09.796Z,15.50
2018-11-07T15:35:39.370Z,15.50
2018-11-07T15:38:09.444Z,24.43
2018-11-07T15:40:39.246Z,17.73
2018-11-07T15:43:08.625Z,22.43
2018-11-07T15:45:38.020Z,21.83
2018-11-07T15:48:07.338Z,28.33
2018-11-07T15:50:42.267Z,23.23
2018-11-07T15:53:11.653Z,31.93
2018-11-07T15:55:41.104Z,13.47
2018-11-07T15:58:10.480Z,10.40
2018-11-07T16:00:39.951Z,12.60
2018-11-07T16:03:09.312Z,13.60
2018-11-07T16:05:38.803Z,20.17
2018-11-07T16:08:14.833Z,17.63
2018-11-07T16:10:44.550Z,16.97
2018-11-07T16:13:13.953Z,23.17
2018-11-07T16:15:43.367Z,10.63
2018-11-07T16:18:12.796Z,18.23
2018-11-07T16:20:42.235Z,13.63
2018-11-07T16:23:11.651Z,13.90
2018-11-07T16:25:41.144Z,18.80
2018-11-07T16:28:10.495Z,16.60
2018-11-07T16:30:39.916Z,21.13
2018-11-07T16:33:09.555Z,21.30
2018-11-07T16:35:38.963Z,27.50
2018-11-07T16:38:08.300Z,22.30
2018-11-07T16:40:37.956Z,17.03
2018-11-07T16:43:07.306Z,20.10
2018-11-07T16:45:36.664Z,25.27
2018-11-07T16:48:06.386Z,29.60
2018-11-07T16:50:35.806Z,33.23
2018-11-07T16:53:05.337Z,21.80
2018-11-07T16:55:34.947Z,26.80
2018-11-07T16:58:04.272Z,25.10
2018-11-07T17:00:33.636Z,25.63
2018-11-07T17:03:03.057Z,25.23
2018-11-07T17:05:32.373Z,22.87
2018-11-07T17:08:01.743Z,31.27
2018-11-07T17:10:31.130Z,20.00
2018-11-07T17:13:00.567Z,19.20
2018-11-07T17:15:29.913Z,22.60
2018-11-07T17:17:59.657Z,23.30
2018-11-07T17:20:29.003Z,23.07
2018-11-07T17:22:58.398Z,29.67
2018-11-07T17:25:27.781Z,19.33
2018-11-07T17:27:57.116Z,23.93
2018-11-07T17:30:26.463Z,30.07
2018-11-07T17:32:55.839Z,22.20
2018-11-07T17:35:25.177Z,24.17
2018-11-07T17:37:54.484Z,25.80
2018-11-07T17:40:24.695Z,27.83
2018-11-07T17:42:54.359Z,39.43
2018-11-07T17:45:24.077Z,18.23
2018-11-07T17:47:53.649Z,22.27
2018-11-07T17:50:23.702Z,23.50
2018-11-07T17:52:53.410Z,26.90
2018-11-07T17:55:23.204Z,26.90
2018-11-07T17:57:52.563Z,23.17
2018-11-07T18:00:22.986Z,17.87
2018-11-07T18:02:52.503Z,34.13
2018-11-07T18:05:21.984Z,19.00
2018-11-07T18:07:51.350Z,21.00
2018-11-07T18:10:20.743Z,34.40
2018-11-07T18:12:50.140Z,23.67
2018-11-07T18:15:19.515Z,15.70
2018-11-07T18:17:49.007Z,18.63
2018-11-07T18:20:18.675Z,24.50
2018-11-07T18:22:48.279Z,25.53
2018-11-07T18:25:18.737Z,32.93
2018-11-07T18:27:48.102Z,23.50
2018-11-07T18:30:18.057Z,30.93
2018-11-07T18:32:47.987Z,22.63
2018-11-07T18:35:18.736Z,22.13
2018-11-07T18:37:48.343Z,20.53
2018-11-07T18:40:18.933Z,26.30
2018-11-07T18:42:48.399Z,23.43
2018-11-07T18:45:17.696Z,27.93
2018-11-07T18:47:47.766Z,24.20
2018-11-07T18:50:18.587Z,39.93
2018-11-07T18:52:48.044Z,37.93
2018-11-07T18:55:17.955Z,44.27
2018-11-07T18:57:47.698Z,33.67
2018-11-07T19:00:18.299Z,27.97
2018-11-07T19:02:48.310Z,32.27
2018-11-07T19:05:17.685Z,29.90
2018-11-07T19:07:47.070Z,25.07
2018-11-07T19:10:19.162Z,25.43
2018-11-07T19:12:48.842Z,28.10
2018-11-07T19:15:18.579Z,29.47
2018-11-07T19:17:48.963Z,32.50
2018-11-07T19:20:18.786Z,40.53
2018-11-07T19:22:48.611Z,31.63
2018-11-07T19:25:19.408Z,24.50
2018-11-07T19:27:50.369Z,36.60
2018-11-07T19:30:23.138Z,31.93
2018-11-07T19:32:53.299Z,33.43
2018-11-07T19:35:23.102Z,29.37
2018-11-07T19:37:52.668Z,25.17
2018-11-07T19:40:23.545Z,26.03
2018-11-07T19:42:52.956Z,30.30
2018-11-07T19:45:22.827Z,33.90
2018-11-07T19:47:52.438Z,33.00
2018-11-07T19:50:23.259Z,32.77
2018-11-07T19:52:53.047Z,36.10
2018-11-07T19:55:24.012Z,37.90
2018-11-07T19:57:57.999Z,31.60
2018-11-07T20:00:27.568Z,36.73
2018-11-07T20:02:56.937Z,28.33
2018-11-07T20:05:26.298Z,30.60
2018-11-07T20:07:55.887Z,33.20
2018-11-07T20:10:25.351Z,35.53
2018-11-07T20:12:54.729Z,30.47
2018-11-07T20:15:27.182Z,49.67
2018-11-07T20:17:56.704Z,44.53
2018-11-07T20:20:26.273Z,34.33
2018-11-07T20:22:55.754Z,28.97
2018-11-07T20:25:25.077Z,41.73
2018-11-07T20:27:54.679Z,27.90
2018-11-07T20:30:24.232Z,32.83
2018-11-07T20:32:53.610Z,32.33
2018-11-07T20:35:23.228Z,27.40
2018-11-07T20:37:52.762Z,27.47
2018-11-07T20:40:23.033Z,34.17
2018-11-07T20:42:57.096Z,41.77
2018-11-07T20:45:26.544Z,30.40
2018-11-07T20:47:55.905Z,35.33
2018-11-07T20:50:26.836Z,35.13
2018-11-07T20:52:56.339Z,32.87
2018-11-07T20:55:29.051Z,36.50
2018-11-07T20:57:58.413Z,30.63
2018-11-07T21:00:27.751Z,36.47
2018-11-07T21:02:57.602Z,41.80
2018-11-07T21:05:27.276Z,38.87
2018-11-07T21:07:57.218Z,34.70
2018-11-07T21:10:27.013Z,35.50
2018-11-07T21:12:56.527Z,31.40
2018-11-07T21:15:26.448Z,33.23
2018-11-07T21:17:55.840Z,42.73
2018-11-07T21:20:25.230Z,36.10
2018-11-07T21:22:54.610Z,37.70
2018-11-07T21:25:24.104Z,34.47
2018-11-07T21:27:53.621Z,32.87
2018-11-07T21:30:23.438Z,39.07
2018-11-07T21:32:52.954Z,33.80
2018-11-07T21:35:22.332Z,32.43
2018-11-07T21:37:52.482Z,49.67
2018-11-07T21:40:22.263Z,31.63
2018-11-07T21:42:52.102Z,34.00
2018-11-07T21:45:23.304Z,36.70
2018-11-07T21:47:54.094Z,36.67
2018-11-07T21:50:23.539Z,34.40
2018-11-07T21:52:52.999Z,49.83
2018-11-07T21:55:22.389Z,33.67
2018-11-07T21:57:51.745Z,42.33
2018-11-07T22:00:21.057Z,34.53
2018-11-07T22:02:50.522Z,40.03
2018-11-07T22:05:19.812Z,36.20
2018-11-07T22:07:49.179Z,37.30
2018-11-07T22:10:19.638Z,39.33
2018-11-07T22:12:49.005Z,41.60
2018-11-07T22:15:19.152Z,37.17
2018-11-07T22:17:48.522Z,36.57
2018-11-07T22:20:20.988Z,34.20
2018-11-07T22:22:50.362Z,35.00
2018-11-07T22:25:20.672Z,34.97
2018-11-07T22:27:51.563Z,41.00
2018-11-07T22:30:21.999Z,38.90
2018-11-07T22:32:51.450Z,37.37
2018-11-07T22:35:21.711Z,42.77
2018-11-07T22:37:52.679Z,35.03
2018-11-07T22:40:22.313Z,33.37
2018-11-07T22:42:51.601Z,37.70
2018-11-07T22:45:21.636Z,40.97
2018-11-07T22:47:50.955Z,38.57
2018-11-07T22:50:20.356Z,38.97
2018-11-07T22:52:49.852Z,45.37
2018-11-07T22:55:19.182Z,40.87
2018-11-07T22:57:48.517Z,48.67
2018-11-07T23:00:23.548Z,35.37
2018-11-07T23:02:55.634Z,36.93
2018-11-07T23:05:24.983Z,38.27
2018-11-07T23:07:54.326Z,34.90
2018-11-07T23:10:23.638Z,35.80
2018-11-07T23:12:53.216Z,36.40
2018-11-07T23:15:52.681Z,30.03
2018-11-07T23:18:22.015Z,36.00
2018-11-07T23:20:51.392Z,32.53
2018-11-07T23:23:23.120Z,36.00
2018-11-07T23:25:53.026Z,38.03
2018-11-07T23:28:22.376Z,28.17
2018-11-07T23:30:52.115Z,29.57
2018-11-07T23:33:21.412Z,31.33
2018-11-07T23:35:50.742Z,33.57
2018-11-07T23:38:20.133Z,31.00
2018-11-07T23:40:49.681Z,28.43
2018-11-07T23:43:18.984Z,38.80
2018-11-07T23:45:48.403Z,37.77
2018-11-07T23:48:17.683Z,34.27
2018-11-07T23:50:47.000Z,32.87
2018-11-07T23:53:16.626Z,41.10
2018-11-07T23:55:45.944Z,33.33
2018-11-07T23:58:15.270Z,31.80
